Time;durP1;ratioP1;P1;durP2;ratioP2;P2;SDS_P1;SDS_P2;PMS_P1;PMS_P2;Temp;Humidity;BMP_temperature;BMP_pressure;BME280_temperature;BME280_humidity;BME280_pressure;Samples;Min_cycle;Max_cycle;Signal;HPM_P1;HPM_P2
2022/01/09 00:02:11;;;;;;;45.80;19.63;;;;;;;6.03;98.58;96338.97;4950556;28;20201;-86
2022/01/09 00:04:38;;;;;;;52.37;21.83;;;;;;;6.27;99.05;96377.38;4953368;28;20202;-85
2022/01/09 00:07:06;;;;;;;50.80;20.57;;;;;;;6.34;99.07;96399.41;4968677;28;20654;-85
2022/01/09 00:09:33;;;;;;;42.73;17.17;;;;;;;5.81;99.71;96354.34;4951676;28;20239;-84
2022/01/09 00:12:00;;;;;;;34.80;15.90;;;;;;;6.03;100.00;96380.91;4936563;28;20266;-84
2022/01/09 00:14:28;;;;;;;33.70;15.10;;;;;;;5.71;100.00;96311.91;4967475;28;20206;-87
2022/01/09 00:16:57;;;;;;;33.30;14.57;;;;;;;5.69;100.00;96304.25;4952243;28;20640;-87
2022/01/09 00:19:24;;;;;;;35.63;14.80;;;;;;;5.75;99.79;96314.31;4968310;28;20279;-88
2022/01/09 00:21:51;;;;;;;38.33;16.20;;;;;;;6.08;99.75;96379.00;4969235;28;20203;-87
2022/01/09 00:24:19;;;;;;;40.60;17.57;;;;;;;5.66;99.81;96314.66;4934628;28;20202;-88
2022/01/09 00:26:46;;;;;;;32.83;15.57;;;;;;;5.84;100.00;96348.25;4952158;28;20191;-87
2022/01/09 00:29:13;;;;;;;39.17;18.27;;;;;;;5.89;100.00;96365.19;4968789;28;20748;-87
2022/01/09 00:31:41;;;;;;;38.63;17.33;;;;;;;6.03;100.00;96395.50;4952914;28;20281;-85
2022/01/09 00:34:08;;;;;;;35.13;16.93;;;;;;;5.83;100.00;96357.69;4972805;28;20189;-85
2022/01/09 00:36:35;;;;;;;42.63;17.80;;;;;;;5.87;100.00;96354.16;4935342;28;20587;-85
2022/01/09 00:39:03;;;;;;;38.77;17.27;;;;;;;5.87;100.00;96359.28;4935966;29;20212;-86
2022/01/09 00:41:31;;;;;;;37.77;17.43;;;;;;;5.84;100.00;96343.97;4965587;28;20203;-86
2022/01/09 00:44:02;;;;;;;38.57;16.17;;;;;;;5.57;100.00;96289.31;4972375;28;20193;-86
2022/01/09 00:46:29;;;;;;;38.23;16.50;;;;;;;5.53;100.00;96277.50;4938966;28;20201;-86
2022/01/09 00:48:56;;;;;;;38.23;16.70;;;;;;;5.79;100.00;96330.41;4953868;28;20271;-85
2022/01/09 00:51:23;;;;;;;41.70;16.87;;;;;;;5.97;100.00;96363.16;4955064;28;20252;-85
2022/01/09 00:53:51;;;;;;;36.40;14.70;;;;;;;5.72;100.00;96317.00;4971094;28;20196;-86
2022/01/09 00:56:18;;;;;;;37.57;14.90;;;;;;;5.91;100.00;96355.69;4972384;28;20201;-86
2022/01/09 00:58:45;;;;;;;43.03;15.77;;;;;;;5.83;100.00;96326.88;4970602;28;20194;-87
2022/01/09 01:01:13;;;;;;;30.20;14.63;;;;;;;5.72;100.00;96336.72;4954477;28;20199;-86
2022/01/09 01:03:40;;;;;;;38.97;16.47;;;;;;;5.88;100.00;96326.69;4938350;28;20290;-86
2022/01/09 01:06:07;;;;;;;40.80;15.50;;;;;;;5.63;100.00;96291.66;4971409;28;20196;-87
2022/01/09 01:08:34;;;;;;;38.80;14.73;;;;;;;5.89;100.00;96347.22;4955053;28;20250;-87
2022/01/09 01:11:02;;;;;;;35.50;13.40;;;;;;;5.87;100.00;96338.72;4952831;28;20242;-86
2022/01/09 01:13:29;;;;;;;40.23;15.47;;;;;;;5.87;100.00;96338.72;4972024;28;20237;-86
2022/01/09 01:15:57;;;;;;;33.37;13.60;;;;;;;5.83;100.00;96331.16;4953042;28;20196;-86
2022/01/09 01:18:25;;;;;;;39.07;14.53;;;;;;;5.76;100.00;96328.84;4954803;28;20310;-86
2022/01/09 01:20:52;;;;;;;39.23;16.97;;;;;;;5.98;100.00;96331.41;4971041;28;20195;-86
2022/01/09 01:23:19;;;;;;;40.63;17.67;;;;;;;5.91;100.00;96311.19;4954232;28;20210;-86
2022/01/09 01:25:51;;;;;;;37.77;16.90;;;;;;;5.48;100.00;96237.50;4938759;28;20671;-85
2022/01/09 01:28:19;;;;;;;34.00;15.40;;;;;;;6.02;100.00;96321.88;4970510;28;20204;-86
2022/01/09 01:30:48;;;;;;;37.13;16.43;;;;;;;5.72;100.00;96255.34;4972713;28;20333;-85
2022/01/09 01:33:15;;;;;;;30.63;14.67;;;;;;;5.98;100.00;96281.75;4957172;28;20210;-85
2022/01/09 01:35:42;;;;;;;32.10;14.27;;;;;;;6.21;99.90;96305.66;4977907;28;20225;-86
2022/01/09 01:38:09;;;;;;;30.43;14.83;;;;;;;6.24;100.00;96291.84;4978657;28;20200;-86
2022/01/09 01:40:40;;;;;;;32.60;15.87;;;;;;;6.32;100.00;96290.63;4981137;28;20195;-86
2022/01/09 01:43:08;;;;;;;29.00;15.47;;;;;;;5.53;99.60;96179.94;4948894;28;20197;-87
2022/01/09 01:45:35;;;;;;;29.47;15.63;;;;;;;5.60;100.00;96188.22;4981156;28;20195;-86
2022/01/09 01:48:06;;;;;;;31.30;14.13;;;;;;;5.83;99.77;96224.09;4964567;28;20267;-86
2022/01/09 01:50:37;;;;;;;32.47;13.90;;;;;;;6.15;99.26;96267.34;4961434;28;20257;-85
2022/01/09 01:53:08;;;;;;;32.20;15.03;;;;;;;6.19;99.37;96276.59;4957641;28;20203;-83
2022/01/09 01:55:37;;;;;;;34.97;15.50;;;;;;;5.81;99.45;96213.06;4955391;28;20202;-87
2022/01/09 01:58:06;;;;;;;34.57;16.00;;;;;;;6.14;99.38;96259.69;4922648;28;20193;-86
2022/01/09 02:00:34;;;;;;;32.60;15.57;;;;;;;6.41;99.04;96299.69;4971922;28;20203;-87
2022/01/09 02:03:03;;;;;;;35.77;17.30;;;;;;;5.89;98.67;96198.19;4952498;28;20612;-88
2022/01/09 02:05:30;;;;;;;35.47;16.33;;;;;;;6.48;98.88;96291.66;4953430;28;20189;-87
2022/01/09 02:08:00;;;;;;;40.60;19.17;;;;;;;5.93;98.62;96209.19;4952051;28;20255;-85
2022/01/09 02:10:27;;;;;;;31.93;16.03;;;;;;;6.00;98.19;96249.97;4921868;28;20254;-84
2022/01/09 02:12:57;;;;;;;31.40;15.50;;;;;;;5.85;99.48;96227.47;4936761;28;20588;-88
2022/01/09 02:15:26;;;;;;;32.37;15.37;;;;;;;6.39;99.40;96304.91;4936566;28;20200;-85
2022/01/09 02:17:53;;;;;;;31.40;13.77;;;;;;;6.32;98.98;96295.78;4937773;28;20206;-85
2022/01/09 02:20:21;;;;;;;27.97;13.30;;;;;;;6.06;99.33;96262.56;4936369;28;20207;-85
2022/01/09 02:22:48;;;;;;;24.23;12.03;;;;;;;5.84;99.96;96223.22;4970768;28;20240;-85
2022/01/09 02:25:15;;;;;;;22.57;10.90;;;;;;;6.08;98.95;96255.63;4920329;28;20194;-86
2022/01/09 02:27:43;;;;;;;20.97;10.20;;;;;;;6.26;98.29;96270.31;4971092;28;20185;-85
2022/01/09 02:30:11;;;;;;;19.37;9.57;;;;;;;6.32;98.47;96275.22;4936427;28;20730;-87
2022/01/09 02:32:38;;;;;;;18.20;8.77;;;;;;;6.20;99.43;96275.69;4952875;28;20216;-86
2022/01/09 02:35:06;;;;;;;16.30;8.37;;;;;;;6.12;98.78;96267.44;4953800;28;20204;-86
2022/01/09 02:37:33;;;;;;;15.63;7.73;;;;;;;5.53;99.42;96149.13;4953085;28;20203;-90
2022/01/09 02:40:00;;;;;;;13.57;7.80;;;;;;;6.11;99.40;96226.41;4937836;28;20200;-87
2022/01/09 02:42:30;;;;;;;14.43;6.93;;;;;;;6.21;98.51;96238.81;4952408;28;20254;-88
2022/01/09 02:44:58;;;;;;;13.07;6.77;;;;;;;5.58;98.54;96151.50;4971721;28;20594;-86
2022/01/09 02:47:30;;;;;;;13.50;6.77;;;;;;;6.26;98.61;96249.75;4953063;28;20319;-87
2022/01/09 02:50:04;;;;;;;13.60;7.63;;;;;;;5.65;99.40;96166.59;4970104;28;20200;-86
2022/01/09 02:52:35;;;;;;;14.13;7.63;;;;;;;6.18;98.81;96251.78;4953521;28;20561;-88
2022/01/09 02:55:14;;;;;;;14.17;7.57;;;;;;;6.22;99.27;96255.09;4969062;28;20203;-86
2022/01/09 02:57:44;;;;;;;14.17;7.10;;;;;;;5.71;98.71;96168.06;4953321;28;20189;-86
2022/01/09 03:00:20;;;;;;;12.27;6.87;;;;;;;5.95;98.56;96207.38;4935440;28;20200;-85
2022/01/09 03:02:47;;;;;;;13.40;7.63;;;;;;;6.15;99.25;96251.91;4948444;28;20689;-85
2022/01/09 03:05:15;;;;;;;14.50;6.87;;;;;;;5.96;99.73;96209.03;4952842;28;20196;-86
2022/01/09 03:07:44;;;;;;;15.27;7.33;;;;;;;5.56;98.69;96135.31;4951089;28;20195;-87
2022/01/09 03:10:13;;;;;;;13.07;7.70;;;;;;;6.29;99.35;96253.91;4969965;28;20848;-86
2022/01/09 03:12:41;;;;;;;16.17;8.67;;;;;;;6.29;99.09;96244.47;4950968;28;20188;-86
2022/01/09 03:15:11;;;;;;;15.27;8.70;;;;;;;6.25;98.77;96250.63;4970015;28;20281;-87
2022/01/09 03:17:39;;;;;;;16.43;9.17;;;;;;;5.80;98.88;96190.81;4951425;28;20203;-85
2022/01/09 03:20:10;;;;;;;22.30;11.33;;;;;;;5.67;99.13;96177.63;4951524;28;20599;-85
2022/01/09 03:22:37;;;;;;;23.77;11.67;;;;;;;5.64;99.40;96182.91;4952255;28;20197;-86
2022/01/09 03:25:05;;;;;;;21.30;11.03;;;;;;;6.15;100.00;96245.94;4968222;28;20187;-86
2022/01/09 03:27:32;;;;;;;30.70;12.47;;;;;;;6.11;99.34;96249.53;4936392;28;20271;-83
2022/01/09 03:30:01;;;;;;;29.50;13.27;;;;;;;6.06;100.00;96233.47;4968048;28;20678;-85
2022/01/09 03:32:28;;;;;;;26.07;12.20;;;;;;;5.63;100.00;96160.69;4952469;28;20190;-85
2022/01/09 03:34:56;;;;;;;41.10;15.87;;;;;;;5.73;99.48;96168.84;4968637;28;20578;-85
2022/01/09 03:37:23;;;;;;;40.90;15.57;;;;;;;6.04;100.00;96228.38;4951651;28;20197;-86
2022/01/09 03:39:52;;;;;;;41.43;16.40;;;;;;;6.07;99.71;96243.69;4951937;28;20199;-86
2022/01/09 03:42:19;;;;;;;48.30;17.13;;;;;;;6.04;100.00;96237.84;4951672;28;20199;-87
2022/01/09 03:44:46;;;;;;;42.03;15.83;;;;;;;4.87;100.00;96061.97;4952540;28;20286;-85
2022/01/09 03:47:13;;;;;;;48.17;18.20;;;;;;;5.89;100.00;96221.31;4969542;28;20731;-92
2022/01/09 03:49:45;;;;;;;47.00;19.00;;;;;;;5.24;100.00;96121.19;4953567;28;20280;-87
2022/01/09 03:52:13;;;;;;;53.03;18.27;;;;;;;5.86;100.00;96226.56;4934675;28;20274;-85
2022/01/09 03:54:41;;;;;;;41.97;17.93;;;;;;;5.04;100.00;96090.38;4968493;28;20641;-87
2022/01/09 03:57:09;;;;;;;41.73;17.03;;;;;;;5.86;100.00;96226.56;4951588;28;20277;-86
2022/01/09 03:59:36;;;;;;;42.03;17.40;;;;;;;5.81;100.00;96204.50;4967617;28;20203;-85
2022/01/09 04:02:04;;;;;;;45.03;19.23;;;;;;;6.04;100.00;96228.38;4969397;28;20195;-85
2022/01/09 04:04:31;;;;;;;42.37;17.93;;;;;;;5.88;100.00;96191.38;4967657;28;20187;-87
2022/01/09 04:06:58;;;;;;;44.83;16.90;;;;;;;5.55;100.00;96137.03;4951187;28;20201;-85
2022/01/09 04:09:38;;;;;;;54.60;19.53;;;;;;;5.96;100.00;96188.47;4950455;28;20202;-84
2022/01/09 04:12:14;;;;;;;50.27;18.43;;;;;;;6.05;100.00;96221.53;4968519;28;20217;-84
2022/01/09 04:14:43;;;;;;;55.47;20.73;;;;;;;5.91;100.00;96219.53;4951808;28;20202;-84
2022/01/09 04:17:21;;;;;;;45.53;20.67;;;;;;;6.01;100.00;96228.53;4934258;28;20248;-84
2022/01/09 04:19:48;;;;;;;46.93;18.07;;;;;;;5.87;100.00;96194.84;4951718;28;20602;-84
2022/01/09 04:22:16;;;;;;;40.07;19.10;;;;;;;5.77;100.00;96188.38;4950340;28;20243;-84
2022/01/09 04:24:43;;;;;;;45.50;18.60;;;;;;;5.60;100.00;96147.13;4968620;28;20795;-88
2022/01/09 04:27:11;;;;;;;43.60;18.13;;;;;;;5.65;100.00;96133.19;4951351;28;20865;-85
2022/01/09 04:29:38;;;;;;;42.77;17.37;;;;;;;6.11;100.00;96209.25;4967770;28;20282;-85
2022/01/09 04:32:05;;;;;;;43.20;16.93;;;;;;;6.01;100.00;96192.56;4968596;28;20295;-84
2022/01/09 04:34:36;;;;;;;41.57;16.17;;;;;;;5.93;100.00;96207.44;4950002;28;20193;-86
2022/01/09 04:37:06;;;;;;;50.93;17.27;;;;;;;5.60;100.00;96150.56;4935635;28;20756;-84
2022/01/09 04:39:34;;;;;;;45.40;17.77;;;;;;;5.92;100.00;96177.50;4967844;28;20196;-84
2022/01/09 04:42:01;;;;;;;51.47;21.43;;;;;;;6.02;100.00;96206.25;4968098;28;20216;-87
2022/01/09 04:44:29;;;;;;;57.37;24.30;;;;;;;5.91;100.00;96186.13;4950485;28;20202;-85
2022/01/09 04:47:02;;;;;;;64.90;28.37;;;;;;;5.43;100.00;96093.91;4934683;28;20198;-86
2022/01/09 04:49:36;;;;;;;52.30;22.90;;;;;;;4.84;100.00;96019.31;4932502;29;20199;-87
2022/01/09 04:52:05;;;;;;;52.97;20.17;;;;;;;5.79;100.00;96187.41;4930780;29;20221;-86
2022/01/09 04:54:35;;;;;;;45.13;19.30;;;;;;;5.67;100.00;96177.63;4917024;29;20202;-86
2022/01/09 04:57:03;;;;;;;56.83;21.37;;;;;;;5.73;100.00;96189.38;4948041;28;20195;-88
2022/01/09 04:59:31;;;;;;;52.57;20.37;;;;;;;5.74;100.00;96188.50;4917020;29;20194;-86
2022/01/09 05:01:58;;;;;;;58.60;20.80;;;;;;;5.30;100.00;96117.53;4950439;29;20195;-86
2022/01/09 05:04:25;;;;;;;51.50;21.30;;;;;;;5.69;100.00;96175.84;4951551;29;20197;-85
2022/01/09 05:06:52;;;;;;;49.43;19.77;;;;;;;5.32;100.00;96114.03;4931924;29;20667;-85
2022/01/09 05:09:19;;;;;;;47.97;18.33;;;;;;;5.24;100.00;96115.22;4915161;29;20682;-85
2022/01/09 05:11:47;;;;;;;41.87;18.03;;;;;;;5.23;100.00;96098.16;4933578;29;20323;-86
2022/01/09 05:14:15;;;;;;;42.90;17.53;;;;;;;5.61;100.00;96156.50;4932643;29;20199;-86
2022/01/09 05:16:44;;;;;;;40.87;17.33;;;;;;;5.32;100.00;96110.63;4932952;29;20731;-86
2022/01/09 05:19:20;;;;;;;39.10;16.63;;;;;;;5.78;100.00;96182.34;4919235;29;20225;-85
2022/01/09 05:21:48;;;;;;;39.50;16.23;;;;;;;5.87;100.00;96194.84;4934454;29;20698;-85
2022/01/09 05:24:16;;;;;;;46.00;17.40;;;;;;;6.00;100.00;96188.28;4935143;29;20224;-85
2022/01/09 05:26:43;;;;;;;36.87;16.50;;;;;;;6.01;100.00;96189.97;4950653;29;20753;-84
2022/01/09 05:29:11;;;;;;;36.33;17.30;;;;;;;5.82;100.00;96160.75;4952516;29;20188;-86
2022/01/09 05:31:39;;;;;;;41.70;17.77;;;;;;;6.10;100.00;96181.88;4950144;28;20233;-85
2022/01/09 05:34:07;;;;;;;41.13;18.97;;;;;;;5.31;100.00;96071.31;4952345;29;20640;-87
2022/01/09 05:36:34;;;;;;;43.57;17.13;;;;;;;5.90;100.00;96169.03;4952926;29;20189;-87
2022/01/09 05:39:03;;;;;;;38.17;18.97;;;;;;;5.75;100.00;96154.19;4954185;29;20192;-90
2022/01/09 05:41:30;;;;;;;42.23;19.43;;;;;;;5.86;100.00;96170.03;4954150;29;20594;-84
2022/01/09 05:43:57;;;;;;;42.40;18.00;;;;;;;5.57;100.00;96116.44;4950773;29;20193;-85
2022/01/09 05:46:24;;;;;;;40.07;20.27;;;;;;;5.93;100.00;96153.50;4952398;29;20271;-85
2022/01/09 05:48:51;;;;;;;39.87;19.17;;;;;;;5.99;100.00;96153.22;4965096;28;20231;-85
2022/01/09 05:51:19;;;;;;;40.43;19.50;;;;;;;6.22;100.00;96172.81;4971416;28;20226;-85
2022/01/09 05:53:46;;;;;;;42.47;19.97;;;;;;;6.19;99.44;96171.22;4936921;28;20210;-84
2022/01/09 05:56:13;;;;;;;49.83;19.43;;;;;;;6.13;99.77;96161.19;4953153;28;20204;-85
2022/01/09 05:58:40;;;;;;;41.10;20.73;;;;;;;5.97;99.40;96125.94;4953890;28;20720;-84
2022/01/09 06:01:08;;;;;;;40.80;19.00;;;;;;;6.37;99.52;96187.56;4952888;28;20190;-84
2022/01/09 06:03:35;;;;;;;42.57;20.27;;;;;;;6.43;99.10;96195.88;4953838;28;20203;-85
2022/01/09 06:06:03;;;;;;;45.13;20.47;;;;;;;5.92;98.78;96110.69;4952781;28;20288;-85
2022/01/09 06:08:31;;;;;;;40.50;20.47;;;;;;;5.82;97.90;96085.44;4953956;28;20208;-87
2022/01/09 06:10:58;;;;;;;41.00;19.80;;;;;;;6.49;97.78;96200.75;4952351;28;20223;-86
2022/01/09 06:13:25;;;;;;;35.53;18.57;;;;;;;6.41;98.80;96191.69;4953759;28;20198;-90
2022/01/09 06:15:58;;;;;;;39.33;20.90;;;;;;;6.38;98.34;96184.97;4923975;28;20205;-86
2022/01/09 06:18:25;;;;;;;32.90;17.50;;;;;;;6.44;98.39;96183.84;4952399;28;20199;-88
2022/01/09 06:21:32;;;;;;;36.33;18.90;;;;;;;6.46;98.28;96198.31;4938047;28;20207;-86
2022/01/09 06:24:53;;;;;;;40.70;19.10;;;;;;;6.46;98.42;96206.03;4952236;28;20203;-87
2022/01/09 06:28:14;;;;;;;37.43;19.07;;;;;;;6.47;98.16;96194.81;4968532;28;20199;-84
2022/01/09 06:31:34;;;;;;;36.10;18.57;;;;;;;6.53;99.12;96193.75;4932812;28;20271;-86
2022/01/09 06:34:59;;;;;;;41.63;20.27;;;;;;;6.45;98.59;96182.97;4961430;28;20211;-86
2022/01/09 06:38:20;;;;;;;43.63;20.53;;;;;;;6.56;97.03;96204.72;4952499;28;20188;-85
2022/01/09 06:41:41;;;;;;;38.03;20.03;;;;;;;6.49;97.16;96194.78;4952232;28;20196;-87
2022/01/09 06:45:01;;;;;;;40.07;21.87;;;;;;;6.55;98.10;96199.66;4967945;28;20667;-87
2022/01/09 06:48:23;;;;;;;46.63;22.17;;;;;;;6.49;97.52;96185.31;4957718;28;20247;-85
2022/01/09 06:51:44;;;;;;;41.27;22.00;;;;;;;6.58;97.88;96202.09;4916897;29;20730;-85
2022/01/09 06:55:05;;;;;;;44.67;23.27;;;;;;;5.81;97.28;96079.47;4935011;29;20681;-86
2022/01/09 06:58:25;;;;;;;41.37;21.33;;;;;;;6.58;97.31;96202.94;4934505;28;20262;-86
2022/01/09 07:01:47;;;;;;;39.53;21.10;;;;;;;6.57;97.14;96206.38;4947803;28;20745;-84
2022/01/09 07:05:08;;;;;;;41.63;22.23;;;;;;;6.57;98.09;96208.97;4950122;29;20263;-88
2022/01/09 07:08:33;;;;;;;39.03;20.83;;;;;;;6.47;97.13;96181.97;4953298;28;20276;-86
2022/01/09 07:11:54;;;;;;;41.60;22.53;;;;;;;6.33;96.94;96132.03;4966277;28;20254;-85
2022/01/09 07:15:14;;;;;;;46.20;25.80;;;;;;;6.55;96.79;96182.47;4950559;28;20222;-86
2022/01/09 07:18:35;;;;;;;62.37;30.43;;;;;;;6.24;97.79;96161.59;4968997;28;20193;-86
2022/01/09 07:21:56;;;;;;;56.70;28.57;;;;;;;6.30;99.24;96176.75;4969431;28;20191;-85
2022/01/09 07:25:17;;;;;;;61.87;30.60;;;;;;;6.31;99.00;96172.41;4953905;28;20191;-86
2022/01/09 07:28:38;;;;;;;55.60;30.37;;;;;;;6.39;99.21;96178.06;4950111;28;20207;-85
2022/01/09 07:31:58;;;;;;;56.73;30.93;;;;;;;6.29;99.76;96169.06;4950857;28;20228;-85
2022/01/09 07:35:19;;;;;;;50.80;28.53;;;;;;;6.52;98.87;96182.63;4938352;28;20191;-88
2022/01/09 07:38:43;;;;;;;53.23;31.10;;;;;;;6.69;98.52;96175.91;4955171;28;20199;-87
2022/01/09 07:42:05;;;;;;;48.50;26.43;;;;;;;6.61;97.53;96183.13;4948144;28;20258;-86
2022/01/09 07:45:27;;;;;;;52.53;29.57;;;;;;;6.54;98.15;96183.38;4934408;29;20200;-85
2022/01/09 07:48:48;;;;;;;55.87;33.50;;;;;;;6.59;97.72;96173.72;4933696;29;20248;-84
2022/01/09 07:52:09;;;;;;;55.53;31.20;;;;;;;6.67;97.28;96175.13;4934186;29;20217;-85
2022/01/09 07:55:33;;;;;;;54.10;28.80;;;;;;;6.71;97.84;96171.50;4933562;29;20196;-89
2022/01/09 07:58:55;;;;;;;55.07;29.13;;;;;;;6.45;96.96;96106.63;4931503;29;20193;-85
2022/01/09 08:02:16;;;;;;;57.20;30.17;;;;;;;6.80;96.76;96171.94;4931995;29;20583;-85
2022/01/09 08:05:36;;;;;;;58.23;27.33;;;;;;;6.81;97.34;96165.03;4934319;29;20188;-84
2022/01/09 08:08:18;;;;;;;54.13;28.27;;;;;;;6.27;97.57;96074.03;4917097;29;20193;-84
2022/01/09 08:10:45;;;;;;;50.87;27.63;;;;;;;6.37;97.60;96124.13;4901745;29;20718;-85
2022/01/09 08:13:13;;;;;;;87.00;39.73;;;;;;;6.33;96.79;96066.03;4932512;29;20595;-84
2022/01/09 08:15:40;;;;;;;60.20;33.60;;;;;;;6.25;98.02;96072.41;4930356;29;20195;-84
2022/01/09 08:18:12;;;;;;;64.43;33.13;;;;;;;6.43;98.40;96121.28;4917185;29;20201;-84
2022/01/09 08:20:41;;;;;;;47.40;24.50;;;;;;;6.56;98.88;96143.00;4931860;29;20193;-84
2022/01/09 08:23:17;;;;;;;44.93;24.17;;;;;;;6.62;98.56;96146.19;4941661;28;20207;-85
2022/01/09 08:25:45;;;;;;;50.90;27.40;;;;;;;6.25;98.50;96057.84;4919704;28;20205;-83
2022/01/09 08:28:13;;;;;;;47.07;28.30;;;;;;;6.57;98.94;96075.22;4932132;28;20657;-84
2022/01/09 08:30:43;;;;;;;48.77;26.33;;;;;;;6.63;98.24;96073.28;4910113;29;20240;-84
2022/01/09 08:33:10;;;;;;;44.30;24.03;;;;;;;7.03;97.61;96155.44;4919442;28;20255;-86
2022/01/09 08:35:37;;;;;;;51.80;28.37;;;;;;;6.62;97.38;96045.88;4934993;28;20287;-85
2022/01/09 08:38:04;;;;;;;53.97;28.47;;;;;;;7.07;96.89;96111.47;4967053;28;20203;-83
2022/01/09 08:40:32;;;;;;;41.20;21.37;;;;;;;6.86;96.73;96094.44;4920778;28;20227;-85
2022/01/09 08:42:59;;;;;;;37.97;20.07;;;;;;;7.15;95.06;96121.44;4919937;28;20363;-85
2022/01/09 08:45:29;;;;;;;29.93;17.17;;;;;;;6.60;95.39;96043.38;4951207;28;21300;-83
2022/01/09 08:48:03;;;;;;;40.63;21.53;;;;;;;7.21;95.95;96134.00;4937066;28;20749;-85
2022/01/09 08:50:31;;;;;;;37.50;20.80;;;;;;;6.58;95.92;96051.16;4968245;28;20580;-85
2022/01/09 08:52:59;;;;;;;40.10;21.80;;;;;;;6.63;96.53;96057.84;4972195;28;20224;-84
2022/01/09 08:55:26;;;;;;;41.33;22.17;;;;;;;7.23;96.61;96125.28;4953885;28;20738;-83
2022/01/09 08:57:54;;;;;;;36.10;20.23;;;;;;;6.50;96.77;96021.56;4973647;28;20294;-83
2022/01/09 09:00:25;;;;;;;40.30;24.10;;;;;;;7.20;96.60;96111.72;4955398;28;20740;-83
2022/01/09 09:03:01;;;;;;;42.37;21.03;;;;;;;6.67;95.93;96010.50;4954237;28;20204;-90
2022/01/09 09:05:32;;;;;;;37.80;22.30;;;;;;;6.81;96.11;96026.94;4974931;28;20250;-85
2022/01/09 09:08:03;;;;;;;38.00;22.13;;;;;;;7.10;95.69;96066.75;4953212;28;20255;-84
2022/01/09 09:10:30;;;;;;;38.40;22.17;;;;;;;7.38;95.71;96093.66;4975613;28;20189;-85
2022/01/09 09:12:57;;;;;;;41.47;22.53;;;;;;;7.55;95.30;96103.16;4954384;28;20307;-85
2022/01/09 09:15:27;;;;;;;34.80;19.83;;;;;;;7.63;95.00;96110.50;4973442;28;20279;-85
2022/01/09 09:18:09;;;;;;;36.07;19.90;;;;;;;7.56;94.42;96115.13;4941832;28;20224;-84
2022/01/09 09:20:38;;;;;;;41.37;22.40;;;;;;;7.65;94.81;96119.81;4971640;28;20188;-84
2022/01/09 09:23:05;;;;;;;32.43;18.17;;;;;;;7.60;93.93;96121.81;4957326;28;20211;-84
2022/01/09 09:25:33;;;;;;;31.57;18.03;;;;;;;7.52;94.42;96093.00;4974171;28;20246;-84
2022/01/09 09:28:00;;;;;;;28.70;18.00;;;;;;;7.36;95.19;96086.91;4976691;28;20189;-84
2022/01/09 09:30:27;;;;;;;33.43;19.27;;;;;;;7.21;94.93;96041.31;4959974;28;20195;-84
2022/01/09 09:32:56;;;;;;;35.23;19.90;;;;;;;7.07;94.05;95998.22;4956951;28;20232;-83
2022/01/09 09:35:23;;;;;;;38.57;23.13;;;;;;;7.77;94.53;96111.47;4956902;28;20200;-84
2022/01/09 09:37:51;;;;;;;40.13;23.13;;;;;;;7.39;94.18;96037.84;4957202;28;20763;-84
2022/01/09 09:40:18;;;;;;;42.97;24.67;;;;;;;7.79;93.61;96106.28;4956158;28;20610;-85
2022/01/09 09:42:47;;;;;;;49.67;26.93;;;;;;;7.33;93.52;96051.88;4923361;28;20204;-84
2022/01/09 09:45:15;;;;;;;43.47;23.93;;;;;;;7.66;93.87;96105.22;4939124;28;20711;-84
2022/01/09 09:47:43;;;;;;;38.20;21.47;;;;;;;7.45;94.03;96060.72;4938064;28;20243;-86
2022/01/09 09:50:16;;;;;;;31.67;16.10;;;;;;;7.11;93.95;95997.16;4923925;28;20255;-85
2022/01/09 09:52:48;;;;;;;28.33;15.53;;;;;;;7.18;95.02;96010.56;4971775;28;20230;-85
2022/01/09 09:55:18;;;;;;;24.90;13.80;;;;;;;7.42;95.36;96049.75;4939603;28;20267;-84
2022/01/09 09:57:45;;;;;;;79.70;38.70;;;;;;;7.52;94.90;96069.81;4954466;28;20189;-84
2022/01/09 10:00:17;;;;;;;23.13;15.33;;;;;;;7.51;95.61;96069.88;4938401;28;20204;-84
2022/01/09 10:02:46;;;;;;;18.33;12.53;;;;;;;7.39;94.92;96037.84;4941187;28;20267;-84
2022/01/09 10:05:24;;;;;;;19.47;10.93;;;;;;;7.25;94.83;96002.47;4972736;28;20228;-85
2022/01/09 10:07:54;;;;;;;25.50;15.77;;;;;;;7.59;93.89;96052.31;4958068;28;20586;-83
2022/01/09 10:10:31;;;;;;;23.93;14.90;;;;;;;7.00;93.75;95955.69;4955902;28;20200;-83
2022/01/09 10:13:19;;;;;;;21.23;12.63;;;;;;;6.79;94.05;95915.56;4940753;28;20227;-84
2022/01/09 10:16:09;;;;;;;15.10;8.53;;;;;;;7.42;93.46;96029.94;4958125;28;20218;-85
2022/01/09 10:18:42;;;;;;;18.73;9.67;;;;;;;7.65;93.81;96068.28;4976697;28;20275;-84
2022/01/09 10:21:49;;;;;;;12.40;8.00;;;;;;;7.75;93.15;96060.94;4957986;28;20205;-84
2022/01/09 10:25:10;;;;;;;20.87;11.83;;;;;;;7.78;93.18;96064.19;4940266;28;20204;-84
2022/01/09 10:28:35;;;;;;;18.87;9.50;;;;;;;7.87;93.01;96058.56;4938796;28;20320;-85
2022/01/09 10:32:06;;;;;;;20.10;10.00;;;;;;;7.96;93.02;96065.84;4972292;28;20197;-84
2022/01/09 10:35:43;;;;;;;14.67;8.80;;;;;;;7.82;91.96;96044.25;4954616;28;20998;-84
2022/01/09 10:39:04;;;;;;;15.13;7.40;;;;;;;7.91;91.03;96048.94;4953969;28;20682;-80
2022/01/09 10:42:37;;;;;;;18.90;10.80;;;;;;;7.87;91.67;96050.81;4971302;28;20215;-81
2022/01/09 10:46:01;;;;;;;17.63;8.67;;;;;;;7.70;92.41;96012.22;4974223;28;20350;-82
2022/01/09 10:49:21;;;;;;;15.93;9.13;;;;;;;7.76;91.30;96009.34;4974503;28;20307;-81
2022/01/09 10:52:52;;;;;;;12.60;8.07;;;;;;;7.62;92.50;96031.56;4973970;28;20232;-81
2022/01/09 10:56:01;;;;;;;18.50;10.40;;;;;;;7.68;93.66;96021.78;4971046;28;20766;-81
2022/01/09 10:59:34;;;;;;;20.23;12.10;;;;;;;7.77;93.85;96012.75;4973872;28;20224;-82
2022/01/09 11:02:55;;;;;;;17.90;10.87;;;;;;;7.75;93.04;96010.22;4972943;28;20216;-81
2022/01/09 11:06:17;;;;;;;18.90;10.77;;;;;;;7.69;94.40;95997.66;4972674;28;20201;-81
2022/01/09 11:09:38;;;;;;;22.37;12.27;;;;;;;7.67;93.41;95989.16;4955623;28;20207;-82
2022/01/09 11:12:59;;;;;;;24.00;13.93;;;;;;;7.31;93.09;95911.22;4975468;28;20220;-82
2022/01/09 11:16:41;;;;;;;21.53;13.33;;;;;;;7.85;93.20;95983.06;4955492;28;20275;-82
2022/01/09 11:20:02;;;;;;;13.70;8.30;;;;;;;7.70;91.86;95988.19;4938948;29;20949;-84
2022/01/09 11:23:23;;;;;;;16.17;9.83;;;;;;;7.69;92.46;95981.34;4953396;29;20286;-81
2022/01/09 11:26:44;;;;;;;17.27;10.87;;;;;;;7.49;91.17;95923.16;4940320;29;20197;-81
2022/01/09 11:30:03;;;;;;;22.40;14.20;;;;;;;7.91;91.23;95975.00;4936683;29;20197;-81
2022/01/09 11:33:12;;;;;;;18.03;11.53;;;;;;;7.98;91.14;95976.38;4928080;29;20233;-81
2022/01/09 11:36:42;;;;;;;20.17;10.93;;;;;;;7.99;91.92;95962.59;4933638;29;20299;-82
2022/01/09 11:40:03;;;;;;;18.00;9.80;;;;;;;8.01;90.36;95960.75;4909715;29;20287;-81
2022/01/09 11:43:27;;;;;;;15.07;8.37;;;;;;;7.98;90.39;95958.31;4944441;28;20641;-83
2022/01/09 11:46:47;;;;;;;13.40;7.93;;;;;;;8.06;90.76;95956.16;4937671;28;20196;-81
2022/01/09 11:49:56;;;;;;;14.97;8.87;;;;;;;8.06;90.69;95945.00;4984595;28;20230;-85
2022/01/09 11:52:59;;;;;;;20.40;12.50;;;;;;;8.02;90.25;95948.66;4935453;29;20237;-83
2022/01/09 11:55:44;;;;;;;18.70;12.07;;;;;;;8.16;90.26;95957.34;4951579;28;20692;-82
2022/01/09 11:58:19;;;;;;;22.83;13.47;;;;;;;8.14;90.23;95951.44;4971568;28;20343;-82
2022/01/09 12:00:46;;;;;;;25.80;15.80;;;;;;;7.77;89.22;95868.44;4954815;28;20706;-82
2022/01/09 12:03:30;;;;;;;22.17;14.20;;;;;;;8.09;89.78;95943.13;4953376;28;20208;-82
2022/01/09 12:06:06;;;;;;;29.13;17.07;;;;;;;7.95;90.81;95939.63;4930998;28;20738;-82
2022/01/09 12:09:00;;;;;;;28.57;16.43;;;;;;;8.15;90.25;95934.22;4943941;28;20232;-85
2022/01/09 12:12:13;;;;;;;23.60;15.50;;;;;;;8.24;90.08;95939.69;4949794;28;20296;-89
2022/01/09 12:14:55;;;;;;;29.73;18.87;;;;;;;8.21;89.79;95939.88;4947216;28;20193;-85
2022/01/09 12:17:28;;;;;;;25.00;16.40;;;;;;;8.32;89.50;95941.06;4974717;28;20200;-84
2022/01/09 12:20:07;;;;;;;27.43;15.67;;;;;;;8.31;89.17;95934.25;4973466;28;20204;-82
2022/01/09 12:22:44;;;;;;;24.17;14.17;;;;;;;8.16;88.20;95936.72;4969896;28;20192;-82
2022/01/09 12:25:30;;;;;;;26.20;16.20;;;;;;;8.16;89.17;95935.91;4954263;28;20210;-83
2022/01/09 12:28:07;;;;;;;28.30;16.63;;;;;;;8.10;88.39;95937.03;4978017;28;20279;-82